sensor_id;sensor_type;location;lat;lon;timestamp;P1;durP1;ratioP1;P2;durP2;ratioP2
20203;SDS011;10261;49.010;12.034;2023-02-01T00:00:49;2.97;;;2.17;;
20203;SDS011;10261;49.010;12.034;2023-02-01T00:01:51;2.88;;;2.33;;
20203;SDS011;10261;49.010;12.034;2023-02-01T00:02:54;3.45;;;2.28;;
20203;SDS011;10261;49.010;12.034;2023-02-01T00:03:57;5.00;;;2.22;;
20203;SDS011;10261;49.010;12.034;2023-02-01T00:04:59;3.25;;;1.92;;
20203;SDS011;10261;49.010;12.034;2023-02-01T00:06:02;2.50;;;2.30;;
20203;SDS011;10261;49.010;12.034;2023-02-01T00:07:05;3.38;;;2.50;;
20203;SDS011;10261;49.010;12.034;2023-02-01T00:08:08;3.92;;;2.10;;
20203;SDS011;10261;49.010;12.034;2023-02-01T00:09:10;2.70;;;2.40;;
20203;SDS011;10261;49.010;12.034;2023-02-01T00:10:13;6.30;;;3.05;;
20203;SDS011;10261;49.010;12.034;2023-02-01T00:11:15;2.08;;;1.77;;
20203;SDS011;10261;49.010;12.034;2023-02-01T00:12:18;3.53;;;2.30;;
20203;SDS011;10261;49.010;12.034;2023-02-01T00:13:20;3.47;;;2.15;;
20203;SDS011;10261;49.010;12.034;2023-02-01T00:14:23;3.15;;;2.42;;
20203;SDS011;10261;49.010;12.034;2023-02-01T00:15:25;4.10;;;2.42;;
20203;SDS011;10261;49.010;12.034;2023-02-01T00:16:28;2.85;;;2.03;;
20203;SDS011;10261;49.010;12.034;2023-02-01T00:17:31;4.25;;;2.10;;
20203;SDS011;10261;49.010;12.034;2023-02-01T00:18:34;2.60;;;2.08;;
20203;SDS011;10261;49.010;12.034;2023-02-01T00:19:36;4.03;;;1.85;;
20203;SDS011;10261;49.010;12.034;2023-02-01T00:20:44;3.50;;;2.50;;
20203;SDS011;10261;49.010;12.034;2023-02-01T00:21:47;3.85;;;2.50;;
20203;SDS011;10261;49.010;12.034;2023-02-01T00:22:51;1.85;;;1.70;;
20203;SDS011;10261;49.010;12.034;2023-02-01T00:23:53;2.30;;;1.73;;
20203;SDS011;10261;49.010;12.034;2023-02-01T00:24:56;2.65;;;2.30;;
20203;SDS011;10261;49.010;12.034;2023-02-01T00:25:59;5.63;;;2.33;;
20203;SDS011;10261;49.010;12.034;2023-02-01T00:27:02;4.47;;;2.30;;
20203;SDS011;10261;49.010;12.034;2023-02-01T00:28:05;4.63;;;2.00;;
20203;SDS011;10261;49.010;12.034;2023-02-01T00:29:09;3.45;;;1.92;;
20203;SDS011;10261;49.010;12.034;2023-02-01T00:30:14;3.35;;;2.55;;
20203;SDS011;10261;49.010;12.034;2023-02-01T00:31:16;5.18;;;2.60;;
20203;SDS011;10261;49.010;12.034;2023-02-01T00:32:19;3.22;;;2.50;;
20203;SDS011;10261;49.010;12.034;2023-02-01T00:33:21;3.83;;;2.13;;
20203;SDS011;10261;49.010;12.034;2023-02-01T00:34:24;3.10;;;1.98;;
20203;SDS011;10261;49.010;12.034;2023-02-01T00:35:26;3.00;;;2.05;;
20203;SDS011;10261;49.010;12.034;2023-02-01T00:36:29;5.97;;;2.15;;
20203;SDS011;10261;49.010;12.034;2023-02-01T00:37:31;3.97;;;2.50;;
20203;SDS011;10261;49.010;12.034;2023-02-01T00:38:36;3.25;;;2.67;;
20203;SDS011;10261;49.010;12.034;2023-02-01T00:39:39;4.78;;;2.20;;
20203;SDS011;10261;49.010;12.034;2023-02-01T00:40:41;2.22;;;1.85;;
20203;SDS011;10261;49.010;12.034;2023-02-01T00:41:43;2.92;;;2.03;;
20203;SDS011;10261;49.010;12.034;2023-02-01T00:42:46;3.60;;;2.28;;
20203;SDS011;10261;49.010;12.034;2023-02-01T00:43:49;3.35;;;2.35;;
20203;SDS011;10261;49.010;12.034;2023-02-01T00:44:52;4.00;;;2.45;;
20203;SDS011;10261;49.010;12.034;2023-02-01T00:45:54;2.60;;;2.20;;
20203;SDS011;10261;49.010;12.034;2023-02-01T00:46:57;5.80;;;2.10;;
20203;SDS011;10261;49.010;12.034;2023-02-01T00:47:59;4.15;;;2.65;;
20203;SDS011;10261;49.010;12.034;2023-02-01T00:49:03;2.92;;;2.42;;
20203;SDS011;10261;49.010;12.034;2023-02-01T00:50:05;3.88;;;2.30;;
20203;SDS011;10261;49.010;12.034;2023-02-01T00:51:09;3.60;;;2.35;;
20203;SDS011;10261;49.010;12.034;2023-02-01T00:52:12;3.13;;;2.00;;
20203;SDS011;10261;49.010;12.034;2023-02-01T00:53:15;2.60;;;2.20;;
20203;SDS011;10261;49.010;12.034;2023-02-01T00:54:18;2.90;;;2.40;;
20203;SDS011;10261;49.010;12.034;2023-02-01T00:55:21;3.28;;;2.40;;
20203;SDS011;10261;49.010;12.034;2023-02-01T00:56:23;5.57;;;2.40;;
20203;SDS011;10261;49.010;12.034;2023-02-01T00:57:28;2.85;;;2.30;;
20203;SDS011;10261;49.010;12.034;2023-02-01T00:58:31;3.75;;;2.20;;
20203;SDS011;10261;49.010;12.034;2023-02-01T00:59:35;5.18;;;2.45;;
20203;SDS011;10261;49.010;12.034;2023-02-01T01:00:37;3.90;;;2.60;;
20203;SDS011;10261;49.010;12.034;2023-02-01T01:01:40;3.95;;;2.70;;
20203;SDS011;10261;49.010;12.034;2023-02-01T01:02:43;4.28;;;2.75;;
20203;SDS011;10261;49.010;12.034;2023-02-01T01:03:45;3.75;;;3.15;;
20203;SDS011;10261;49.010;12.034;2023-02-01T01:04:51;3.05;;;2.78;;
20203;SDS011;10261;49.010;12.034;2023-02-01T01:05:56;2.88;;;2.42;;
20203;SDS011;10261;49.010;12.034;2023-02-01T01:06:59;4.00;;;2.67;;
20203;SDS011;10261;49.010;12.034;2023-02-01T01:08:02;2.95;;;2.25;;
20203;SDS011;10261;49.010;12.034;2023-02-01T01:09:05;2.67;;;2.05;;
20203;SDS011;10261;49.010;12.034;2023-02-01T01:10:11;3.35;;;2.35;;
20203;SDS011;10261;49.010;12.034;2023-02-01T01:11:14;3.53;;;2.38;;
20203;SDS011;10261;49.010;12.034;2023-02-01T01:12:19;3.40;;;2.30;;
20203;SDS011;10261;49.010;12.034;2023-02-01T01:13:21;3.00;;;2.38;;
20203;SDS011;10261;49.010;12.034;2023-02-01T01:14:24;3.97;;;2.70;;
20203;SDS011;10261;49.010;12.034;2023-02-01T01:15:26;2.90;;;2.50;;
20203;SDS011;10261;49.010;12.034;2023-02-01T01:16:29;3.40;;;2.67;;
20203;SDS011;10261;49.010;12.034;2023-02-01T01:17:32;3.25;;;2.50;;
20203;SDS011;10261;49.010;12.034;2023-02-01T01:18:35;4.15;;;2.65;;
20203;SDS011;10261;49.010;12.034;2023-02-01T01:19:37;3.78;;;2.60;;
20203;SDS011;10261;49.010;12.034;2023-02-01T01:20:40;2.63;;;2.38;;
20203;SDS011;10261;49.010;12.034;2023-02-01T01:21:42;7.80;;;3.33;;
20203;SDS011;10261;49.010;12.034;2023-02-01T01:22:45;2.50;;;2.30;;
20203;SDS011;10261;49.010;12.034;2023-02-01T01:23:47;2.95;;;2.55;;
20203;SDS011;10261;49.010;12.034;2023-02-01T01:24:50;7.72;;;2.95;;
20203;SDS011;10261;49.010;12.034;2023-02-01T01:25:53;5.10;;;2.72;;
20203;SDS011;10261;49.010;12.034;2023-02-01T01:26:57;4.57;;;3.15;;
20203;SDS011;10261;49.010;12.034;2023-02-01T01:27:58;3.75;;;2.70;;
20203;SDS011;10261;49.010;12.034;2023-02-01T01:29:02;3.67;;;3.10;;
20203;SDS011;10261;49.010;12.034;2023-02-01T01:30:06;3.67;;;2.70;;
20203;SDS011;10261;49.010;12.034;2023-02-01T01:31:09;3.80;;;2.38;;
20203;SDS011;10261;49.010;12.034;2023-02-01T01:32:12;3.70;;;2.28;;
20203;SDS011;10261;49.010;12.034;2023-02-01T01:33:14;5.60;;;2.72;;
20203;SDS011;10261;49.010;12.034;2023-02-01T01:34:17;2.35;;;1.92;;
20203;SDS011;10261;49.010;12.034;2023-02-01T01:35:19;2.65;;;2.42;;
20203;SDS011;10261;49.010;12.034;2023-02-01T01:36:22;3.88;;;2.60;;
20203;SDS011;10261;49.010;12.034;2023-02-01T01:37:25;2.70;;;2.20;;
20203;SDS011;10261;49.010;12.034;2023-02-01T01:38:28;5.82;;;2.00;;
20203;SDS011;10261;49.010;12.034;2023-02-01T01:39:30;3.92;;;2.60;;
20203;SDS011;10261;49.010;12.034;2023-02-01T01:40:33;2.97;;;2.50;;
20203;SDS011;10261;49.010;12.034;2023-02-01T01:41:36;5.32;;;2.03;;
20203;SDS011;10261;49.010;12.034;2023-02-01T01:42:39;3.25;;;1.92;;
20203;SDS011;10261;49.010;12.034;2023-02-01T01:43:46;2.90;;;2.30;;
20203;SDS011;10261;49.010;12.034;2023-02-01T01:45:01;4.60;;;2.53;;
20203;SDS011;10261;49.010;12.034;2023-02-01T01:46:08;5.65;;;2.40;;
20203;SDS011;10261;49.010;12.034;2023-02-01T01:47:10;2.75;;;1.80;;
20203;SDS011;10261;49.010;12.034;2023-02-01T01:48:13;3.05;;;2.33;;
20203;SDS011;10261;49.010;12.034;2023-02-01T01:49:19;3.47;;;2.30;;
20203;SDS011;10261;49.010;12.034;2023-02-01T01:50:27;2.47;;;2.28;;
20203;SDS011;10261;49.010;12.034;2023-02-01T01:51:31;9.32;;;2.55;;
20203;SDS011;10261;49.010;12.034;2023-02-01T01:52:37;6.65;;;2.20;;
20203;SDS011;10261;49.010;12.034;2023-02-01T01:53:43;3.85;;;2.38;;
20203;SDS011;10261;49.010;12.034;2023-02-01T01:54:51;3.50;;;1.88;;
20203;SDS011;10261;49.010;12.034;2023-02-01T01:55:54;3.90;;;2.53;;
20203;SDS011;10261;49.010;12.034;2023-02-01T01:57:00;3.40;;;1.88;;
20203;SDS011;10261;49.010;12.034;2023-02-01T01:58:06;4.72;;;2.80;;
20203;SDS011;10261;49.010;12.034;2023-02-01T01:59:12;2.58;;;2.15;;
20203;SDS011;10261;49.010;12.034;2023-02-01T02:00:15;3.38;;;1.95;;
20203;SDS011;10261;49.010;12.034;2023-02-01T02:01:21;2.30;;;2.00;;
20203;SDS011;10261;49.010;12.034;2023-02-01T02:02:23;3.63;;;2.08;;
20203;SDS011;10261;49.010;12.034;2023-02-01T02:03:27;2.53;;;2.08;;
20203;SDS011;10261;49.010;12.034;2023-02-01T02:04:35;4.53;;;2.25;;
20203;SDS011;10261;49.010;12.034;2023-02-01T02:05:38;2.25;;;1.98;;
20203;SDS011;10261;49.010;12.034;2023-02-01T02:06:41;3.67;;;2.65;;
20203;SDS011;10261;49.010;12.034;2023-02-01T02:07:49;5.00;;;1.90;;
20203;SDS011;10261;49.010;12.034;2023-02-01T02:08:54;2.50;;;1.98;;
20203;SDS011;10261;49.010;12.034;2023-02-01T02:09:57;2.58;;;2.10;;
20203;SDS011;10261;49.010;12.034;2023-02-01T02:11:01;1.73;;;1.60;;
20203;SDS011;10261;49.010;12.034;2023-02-01T02:12:06;3.97;;;2.33;;
20203;SDS011;10261;49.010;12.034;2023-02-01T02:13:08;2.70;;;1.83;;
20203;SDS011;10261;49.010;12.034;2023-02-01T02:14:12;2.45;;;1.65;;
20203;SDS011;10261;49.010;12.034;2023-02-01T02:15:17;2.15;;;1.95;;
20203;SDS011;10261;49.010;12.034;2023-02-01T02:16:29;2.33;;;1.80;;
20203;SDS011;10261;49.010;12.034;2023-02-01T02:17:44;2.30;;;2.13;;
20203;SDS011;10261;49.010;12.034;2023-02-01T02:18:57;4.13;;;2.03;;
20203;SDS011;10261;49.010;12.034;2023-02-01T02:20:30;2.40;;;1.70;;
20203;SDS011;10261;49.010;12.034;2023-02-01T02:21:52;2.08;;;1.77;;
20203;SDS011;10261;49.010;12.034;2023-02-01T02:23:31;2.53;;;1.73;;
20203;SDS011;10261;49.010;12.034;2023-02-01T02:25:12;2.75;;;1.75;;
20203;SDS011;10261;49.010;12.034;2023-02-01T02:26:31;2.30;;;1.77;;
20203;SDS011;10261;49.010;12.034;2023-02-01T02:27:43;2.40;;;1.95;;
20203;SDS011;10261;49.010;12.034;2023-02-01T02:30:47;2.03;;;1.83;;
20203;SDS011;10261;49.010;12.034;2023-02-01T02:32:26;1.80;;;1.50;;
20203;SDS011;10261;49.010;12.034;2023-02-01T02:33:48;3.88;;;2.03;;
20203;SDS011;10261;49.010;12.034;2023-02-01T02:35:01;1.88;;;1.52;;
20203;SDS011;10261;49.010;12.034;2023-02-01T02:36:11;2.83;;;2.15;;
20203;SDS011;10261;49.010;12.034;2023-02-01T02:37:24;2.10;;;1.55;;
20203;SDS011;10261;49.010;12.034;2023-02-01T02:38:38;2.35;;;1.73;;
20203;SDS011;10261;49.010;12.034;2023-02-01T02:39:51;2.55;;;1.70;;
20203;SDS011;10261;49.010;12.034;2023-02-01T02:41:03;2.35;;;2.08;;
20203;SDS011;10261;49.010;12.034;2023-02-01T02:42:12;5.00;;;2.20;;
20203;SDS011;10261;49.010;12.034;2023-02-01T02:43:37;4.47;;;3.22;;
20203;SDS011;10261;49.010;12.034;2023-02-01T02:45:07;2.05;;;1.85;;
20203;SDS011;10261;49.010;12.034;2023-02-01T02:46:33;2.40;;;1.52;;
20203;SDS011;10261;49.010;12.034;2023-02-01T02:47:59;2.03;;;1.83;;
20203;SDS011;10261;49.010;12.034;2023-02-01T02:49:11;4.10;;;1.95;;
20203;SDS011;10261;49.010;12.034;2023-02-01T02:50:17;6.32;;;2.00;;
20203;SDS011;10261;49.010;12.034;2023-02-01T02:51:45;2.70;;;1.75;;
20203;SDS011;10261;49.010;12.034;2023-02-01T02:53:10;1.80;;;1.63;;
20203;SDS011;10261;49.010;12.034;2023-02-01T02:54:34;3.30;;;1.55;;
20203;SDS011;10261;49.010;12.034;2023-02-01T02:55:48;2.63;;;1.55;;
20203;SDS011;10261;49.010;12.034;2023-02-01T02:56:53;3.38;;;2.42;;
20203;SDS011;10261;49.010;12.034;2023-02-01T02:58:16;2.08;;;1.63;;
20203;SDS011;10261;49.010;12.034;2023-02-01T02:59:37;1.70;;;1.60;;
20203;SDS011;10261;49.010;12.034;2023-02-01T03:00:59;2.50;;;1.83;;
20203;SDS011;10261;49.010;12.034;2023-02-01T03:02:22;1.55;;;1.38;;
20203;SDS011;10261;49.010;12.034;2023-02-01T03:03:45;1.67;;;1.48;;
20203;SDS011;10261;49.010;12.034;2023-02-01T03:05:11;1.60;;;1.35;;
20203;SDS011;10261;49.010;12.034;2023-02-01T03:06:13;1.73;;;1.58;;
20203;SDS011;10261;49.010;12.034;2023-02-01T03:09:04;3.22;;;1.70;;
20203;SDS011;10261;49.010;12.034;2023-02-01T03:10:15;4.60;;;1.98;;
20203;SDS011;10261;49.010;12.034;2023-02-01T03:11:24;1.75;;;1.50;;
20203;SDS011;10261;49.010;12.034;2023-02-01T03:12:49;4.43;;;2.20;;
20203;SDS011;10261;49.010;12.034;2023-02-01T03:13:59;3.28;;;1.58;;
20203;SDS011;10261;49.010;12.034;2023-02-01T03:15:06;2.00;;;1.70;;
20203;SDS011;10261;49.010;12.034;2023-02-01T03:16:15;3.83;;;2.08;;
20203;SDS011;10261;49.010;12.034;2023-02-01T03:17:21;2.38;;;1.50;;
20203;SDS011;10261;49.010;12.034;2023-02-01T03:18:31;2.03;;;1.50;;
20203;SDS011;10261;49.010;12.034;2023-02-01T03:19:39;1.65;;;1.55;;
20203;SDS011;10261;49.010;12.034;2023-02-01T03:20:51;2.83;;;1.85;;
20203;SDS011;10261;49.010;12.034;2023-02-01T03:21:55;2.25;;;1.70;;
20203;SDS011;10261;49.010;12.034;2023-02-01T03:23:01;2.05;;;1.60;;
20203;SDS011;10261;49.010;12.034;2023-02-01T03:24:06;3.35;;;2.20;;
20203;SDS011;10261;49.010;12.034;2023-02-01T03:25:13;2.72;;;2.03;;
20203;SDS011;10261;49.010;12.034;2023-02-01T03:26:22;2.38;;;1.85;;
20203;SDS011;10261;49.010;12.034;2023-02-01T03:27:30;1.98;;;1.80;;
20203;SDS011;10261;49.010;12.034;2023-02-01T03:28:34;3.30;;;1.58;;
20203;SDS011;10261;49.010;12.034;2023-02-01T03:29:42;5.78;;;1.83;;
20203;SDS011;10261;49.010;12.034;2023-02-01T03:30:50;2.83;;;2.05;;
20203;SDS011;10261;49.010;12.034;2023-02-01T03:32:02;1.80;;;1.60;;
20203;SDS011;10261;49.010;12.034;2023-02-01T03:33:06;3.25;;;1.80;;
20203;SDS011;10261;49.010;12.034;2023-02-01T03:34:14;3.35;;;1.70;;
20203;SDS011;10261;49.010;12.034;2023-02-01T03:35:17;2.78;;;2.05;;
20203;SDS011;10261;49.010;12.034;2023-02-01T03:36:26;2.00;;;1.40;;
20203;SDS011;10261;49.010;12.034;2023-02-01T03:37:33;2.25;;;1.75;;
20203;SDS011;10261;49.010;12.034;2023-02-01T03:38:37;2.30;;;1.67;;
20203;SDS011;10261;49.010;12.034;2023-02-01T03:39:44;4.70;;;2.20;;
20203;SDS011;10261;49.010;12.034;2023-02-01T03:40:52;2.65;;;1.30;;
20203;SDS011;10261;49.010;12.034;2023-02-01T03:42:00;2.40;;;2.03;;
20203;SDS011;10261;49.010;12.034;2023-02-01T03:43:06;1.98;;;1.70;;
20203;SDS011;10261;49.010;12.034;2023-02-01T03:44:15;2.97;;;2.13;;
20203;SDS011;10261;49.010;12.034;2023-02-01T03:45:22;2.53;;;1.75;;
20203;SDS011;10261;49.010;12.034;2023-02-01T03:46:30;1.95;;;1.75;;
20203;SDS011;10261;49.010;12.034;2023-02-01T03:47:36;8.60;;;1.88;;
20203;SDS011;10261;49.010;12.034;2023-02-01T03:48:42;6.75;;;2.40;;
20203;SDS011;10261;49.010;12.034;2023-02-01T03:49:47;1.73;;;1.50;;
20203;SDS011;10261;49.010;12.034;2023-02-01T03:50:55;2.13;;;1.40;;
20203;SDS011;10261;49.010;12.034;2023-02-01T03:52:02;2.35;;;2.00;;
20203;SDS011;10261;49.010;12.034;2023-02-01T03:53:09;2.40;;;1.88;;
20203;SDS011;10261;49.010;12.034;2023-02-01T03:54:16;2.15;;;1.73;;
20203;SDS011;10261;49.010;12.034;2023-02-01T03:55:20;4.60;;;1.63;;
20203;SDS011;10261;49.010;12.034;2023-02-01T03:56:25;3.33;;;2.10;;
20203;SDS011;10261;49.010;12.034;2023-02-01T03:57:31;2.28;;;2.00;;
20203;SDS011;10261;49.010;12.034;2023-02-01T03:58:37;2.80;;;2.03;;
20203;SDS011;10261;49.010;12.034;2023-02-01T03:59:39;2.10;;;1.50;;
20203;SDS011;10261;49.010;12.034;2023-02-01T04:00:44;3.90;;;1.90;;
20203;SDS011;10261;49.010;12.034;2023-02-01T04:01:47;1.73;;;1.55;;
20203;SDS011;10261;49.010;12.034;2023-02-01T04:02:50;1.95;;;1.20;;
20203;SDS011;10261;49.010;12.034;2023-02-01T04:03:53;2.03;;;1.65;;
20203;SDS011;10261;49.010;12.034;2023-02-01T04:04:56;3.00;;;1.90;;
20203;SDS011;10261;49.010;12.034;2023-02-01T04:05:58;1.83;;;1.63;;
20203;SDS011;10261;49.010;12.034;2023-02-01T04:07:02;1.38;;;1.10;;
20203;SDS011;10261;49.010;12.034;2023-02-01T04:08:04;2.25;;;1.63;;
20203;SDS011;10261;49.010;12.034;2023-02-01T04:09:08;3.05;;;1.75;;
20203;SDS011;10261;49.010;12.034;2023-02-01T04:10:11;2.22;;;1.70;;
20203;SDS011;10261;49.010;12.034;2023-02-01T04:11:14;1.50;;;1.35;;
20203;SDS011;10261;49.010;12.034;2023-02-01T04:12:17;1.60;;;1.50;;
20203;SDS011;10261;49.010;12.034;2023-02-01T04:13:19;4.28;;;2.60;;
20203;SDS011;10261;49.010;12.034;2023-02-01T04:14:22;6.57;;;3.00;;
20203;SDS011;10261;49.010;12.034;2023-02-01T04:15:24;3.67;;;2.65;;
20203;SDS011;10261;49.010;12.034;2023-02-01T04:16:27;2.83;;;1.77;;
20203;SDS011;10261;49.010;12.034;2023-02-01T04:17:29;5.82;;;3.13;;
20203;SDS011;10261;49.010;12.034;2023-02-01T04:18:32;3.45;;;3.15;;
20203;SDS011;10261;49.010;12.034;2023-02-01T04:19:34;2.17;;;1.90;;
20203;SDS011;10261;49.010;12.034;2023-02-01T04:20:37;1.63;;;1.45;;
20203;SDS011;10261;49.010;12.034;2023-02-01T04:21:39;2.92;;;2.08;;
20203;SDS011;10261;49.010;12.034;2023-02-01T04:22:43;1.58;;;1.38;;
20203;SDS011;10261;49.010;12.034;2023-02-01T04:23:45;3.08;;;1.80;;
20203;SDS011;10261;49.010;12.034;2023-02-01T04:24:48;3.47;;;2.00;;
20203;SDS011;10261;49.010;12.034;2023-02-01T04:25:50;1.88;;;1.60;;
20203;SDS011;10261;49.010;12.034;2023-02-01T04:26:53;2.08;;;1.58;;
20203;SDS011;10261;49.010;12.034;2023-02-01T04:27:55;2.05;;;1.10;;
20203;SDS011;10261;49.010;12.034;2023-02-01T04:28:58;2.80;;;1.35;;
20203;SDS011;10261;49.010;12.034;2023-02-01T04:30:00;2.00;;;1.50;;
20203;SDS011;10261;49.010;12.034;2023-02-01T04:31:03;4.60;;;1.63;;
20203;SDS011;10261;49.010;12.034;2023-02-01T04:32:05;2.58;;;2.28;;
20203;SDS011;10261;49.010;12.034;2023-02-01T04:33:08;1.52;;;1.33;;
20203;SDS011;10261;49.010;12.034;2023-02-01T04:34:10;1.73;;;1.10;;
20203;SDS011;10261;49.010;12.034;2023-02-01T04:35:13;1.80;;;1.45;;
20203;SDS011;10261;49.010;12.034;2023-02-01T04:36:15;1.35;;;1.20;;
20203;SDS011;10261;49.010;12.034;2023-02-01T04:37:20;2.25;;;1.60;;
20203;SDS011;10261;49.010;12.034;2023-02-01T04:38:25;1.75;;;1.50;;
20203;SDS011;10261;49.010;12.034;2023-02-01T04:39:28;2.50;;;1.40;;
20203;SDS011;10261;49.010;12.034;2023-02-01T04:40:31;1.40;;;1.27;;
20203;SDS011;10261;49.010;12.034;2023-02-01T04:41:33;5.90;;;1.60;;
20203;SDS011;10261;49.010;12.034;2023-02-01T04:42:35;1.52;;;1.10;;
20203;SDS011;10261;49.010;12.034;2023-02-01T04:43:37;1.60;;;1.27;;
20203;SDS011;10261;49.010;12.034;2023-02-01T04:44:40;7.03;;;1.65;;
20203;SDS011;10261;49.010;12.034;2023-02-01T04:45:46;1.33;;;1.20;;
20203;SDS011;10261;49.010;12.034;2023-02-01T04:46:50;1.50;;;1.33;;
20203;SDS011;10261;49.010;12.034;2023-02-01T04:47:52;2.90;;;1.38;;
20203;SDS011;10261;49.010;12.034;2023-02-01T04:48:55;1.67;;;1.20;;
20203;SDS011;10261;49.010;12.034;2023-02-01T04:49:57;1.75;;;1.15;;
20203;SDS011;10261;49.010;12.034;2023-02-01T04:51:00;1.52;;;1.33;;
20203;SDS011;10261;49.010;12.034;2023-02-01T04:52:02;2.40;;;1.05;;
20203;SDS011;10261;49.010;12.034;2023-02-01T04:53:05;1.50;;;1.10;;
20203;SDS011;10261;49.010;12.034;2023-02-01T04:54:08;1.88;;;1.20;;
20203;SDS011;10261;49.010;12.034;2023-02-01T04:55:12;1.45;;;1.35;;
20203;SDS011;10261;49.010;12.034;2023-02-01T04:56:14;1.88;;;1.20;;
20203;SDS011;10261;49.010;12.034;2023-02-01T04:57:17;2.38;;;1.50;;
20203;SDS011;10261;49.010;12.034;2023-02-01T04:58:19;1.80;;;1.35;;
20203;SDS011;10261;49.010;12.034;2023-02-01T04:59:22;2.28;;;1.17;;
20203;SDS011;10261;49.010;12.034;2023-02-01T05:00:24;2.00;;;0.95;;
20203;SDS011;10261;49.010;12.034;2023-02-01T05:01:27;1.58;;;1.30;;
20203;SDS011;10261;49.010;12.034;2023-02-01T05:02:29;1.50;;;1.30;;
20203;SDS011;10261;49.010;12.034;2023-02-01T05:03:33;2.10;;;1.27;;
20203;SDS011;10261;49.010;12.034;2023-02-01T05:04:36;1.17;;;0.93;;
20203;SDS011;10261;49.010;12.034;2023-02-01T05:05:39;1.20;;;1.00;;
20203;SDS011;10261;49.010;12.034;2023-02-01T05:06:41;2.83;;;1.50;;
20203;SDS011;10261;49.010;12.034;2023-02-01T05:07:45;1.90;;;1.13;;
20203;SDS011;10261;49.010;12.034;2023-02-01T05:08:47;2.17;;;1.10;;
20203;SDS011;10261;49.010;12.034;2023-02-01T05:09:52;2.40;;;1.30;;
20203;SDS011;10261;49.010;12.034;2023-02-01T05:10:54;1.70;;;1.48;;
20203;SDS011;10261;49.010;12.034;2023-02-01T05:11:57;2.10;;;1.40;;
20203;SDS011;10261;49.010;12.034;2023-02-01T05:13:17;1.67;;;0.98;;
20203;SDS011;10261;49.010;12.034;2023-02-01T05:14:38;2.13;;;1.30;;
20203;SDS011;10261;49.010;12.034;2023-02-01T05:15:40;2.40;;;1.30;;
20203;SDS011;10261;49.010;12.034;2023-02-01T05:16:43;1.45;;;1.27;;
20203;SDS011;10261;49.010;12.034;2023-02-01T05:17:45;2.45;;;1.30;;
20203;SDS011;10261;49.010;12.034;2023-02-01T05:18:48;1.50;;;1.10;;
20203;SDS011;10261;49.010;12.034;2023-02-01T05:19:50;1.77;;;1.20;;
20203;SDS011;10261;49.010;12.034;2023-02-01T05:20:53;1.27;;;1.10;;
20203;SDS011;10261;49.010;12.034;2023-02-01T05:21:55;2.20;;;1.10;;
20203;SDS011;10261;49.010;12.034;2023-02-01T05:22:58;1.42;;;1.30;;
20203;SDS011;10261;49.010;12.034;2023-02-01T05:24:00;1.58;;;1.00;;
20203;SDS011;10261;49.010;12.034;2023-02-01T05:25:15;1.30;;;1.20;;
20203;SDS011;10261;49.010;12.034;2023-02-01T05:26:20;1.25;;;1.00;;
20203;SDS011;10261;49.010;12.034;2023-02-01T05:27:22;2.25;;;1.27;;
20203;SDS011;10261;49.010;12.034;2023-02-01T05:28:25;1.88;;;1.35;;
20203;SDS011;10261;49.010;12.034;2023-02-01T05:29:27;1.38;;;1.00;;
20203;SDS011;10261;49.010;12.034;2023-02-01T05:30:30;2.10;;;1.15;;
20203;SDS011;10261;49.010;12.034;2023-02-01T05:31:34;1.95;;;1.15;;
20203;SDS011;10261;49.010;12.034;2023-02-01T05:32:37;1.80;;;1.15;;
20203;SDS011;10261;49.010;12.034;2023-02-01T05:33:39;1.73;;;1.30;;
20203;SDS011;10261;49.010;12.034;2023-02-01T05:34:42;1.15;;;0.90;;
20203;SDS011;10261;49.010;12.034;2023-02-01T05:35:44;2.47;;;1.42;;
20203;SDS011;10261;49.010;12.034;2023-02-01T05:36:47;5.20;;;1.10;;
20203;SDS011;10261;49.010;12.034;2023-02-01T05:37:49;1.30;;;1.20;;
20203;SDS011;10261;49.010;12.034;2023-02-01T05:38:52;1.10;;;1.00;;
20203;SDS011;10261;49.010;12.034;2023-02-01T05:39:54;1.90;;;1.35;;
20203;SDS011;10261;49.010;12.034;2023-02-01T05:40:58;1.77;;;0.90;;
20203;SDS011;10261;49.010;12.034;2023-02-01T05:42:01;3.50;;;1.17;;
20203;SDS011;10261;49.010;12.034;2023-02-01T05:43:04;1.08;;;0.90;;
20203;SDS011;10261;49.010;12.034;2023-02-01T05:44:06;1.98;;;1.20;;
20203;SDS011;10261;49.010;12.034;2023-02-01T05:45:09;2.45;;;1.02;;
20203;SDS011;10261;49.010;12.034;2023-02-01T05:46:11;1.85;;;1.38;;
20203;SDS011;10261;49.010;12.034;2023-02-01T05:47:15;2.15;;;1.40;;
20203;SDS011;10261;49.010;12.034;2023-02-01T05:48:17;1.45;;;1.13;;
20203;SDS011;10261;49.010;12.034;2023-02-01T05:49:20;1.30;;;1.08;;
20203;SDS011;10261;49.010;12.034;2023-02-01T05:50:22;1.23;;;1.13;;
20203;SDS011;10261;49.010;12.034;2023-02-01T05:51:25;1.55;;;1.15;;
20203;SDS011;10261;49.010;12.034;2023-02-01T05:52:27;3.28;;;1.58;;
20203;SDS011;10261;49.010;12.034;2023-02-01T05:53:30;2.30;;;1.33;;
20203;SDS011;10261;49.010;12.034;2023-02-01T05:54:32;1.63;;;1.08;;
20203;SDS011;10261;49.010;12.034;2023-02-01T05:55:35;2.58;;;1.52;;
20203;SDS011;10261;49.010;12.034;2023-02-01T05:56:39;1.83;;;1.27;;
20203;SDS011;10261;49.010;12.034;2023-02-01T05:57:42;1.25;;;1.05;;
20203;SDS011;10261;49.010;12.034;2023-02-01T05:58:44;2.08;;;1.55;;
20203;SDS011;10261;49.010;12.034;2023-02-01T05:59:47;1.15;;;1.05;;
20203;SDS011;10261;49.010;12.034;2023-02-01T06:00:49;2.35;;;1.08;;
20203;SDS011;10261;49.010;12.034;2023-02-01T06:01:52;3.67;;;1.00;;
20203;SDS011;10261;49.010;12.034;2023-02-01T06:02:55;1.45;;;1.10;;
20203;SDS011;10261;49.010;12.034;2023-02-01T06:03:57;1.20;;;1.10;;
20203;SDS011;10261;49.010;12.034;2023-02-01T06:06:17;1.35;;;1.10;;
20203;SDS011;10261;49.010;12.034;2023-02-01T06:07:21;1.10;;;1.00;;
20203;SDS011;10261;49.010;12.034;2023-02-01T06:08:23;2.08;;;0.90;;
20203;SDS011;10261;49.010;12.034;2023-02-01T06:09:26;2.30;;;1.00;;
20203;SDS011;10261;49.010;12.034;2023-02-01T06:10:29;1.75;;;1.08;;
20203;SDS011;10261;49.010;12.034;2023-02-01T06:11:32;1.65;;;1.20;;
20203;SDS011;10261;49.010;12.034;2023-02-01T06:12:35;1.20;;;0.90;;
20203;SDS011;10261;49.010;12.034;2023-02-01T06:13:39;2.38;;;1.08;;
20203;SDS011;10261;49.010;12.034;2023-02-01T06:14:40;2.20;;;1.17;;
20203;SDS011;10261;49.010;12.034;2023-02-01T06:15:44;4.05;;;1.20;;
20203;SDS011;10261;49.010;12.034;2023-02-01T06:16:46;1.17;;;1.05;;
20203;SDS011;10261;49.010;12.034;2023-02-01T06:17:49;1.80;;;1.35;;
20203;SDS011;10261;49.010;12.034;2023-02-01T06:18:51;2.03;;;1.25;;
20203;SDS011;10261;49.010;12.034;2023-02-01T06:19:54;1.38;;;1.15;;
20203;SDS011;10261;49.010;12.034;2023-02-01T06:20:57;1.00;;;0.90;;
20203;SDS011;10261;49.010;12.034;2023-02-01T06:22:01;2.13;;;1.17;;
20203;SDS011;10261;49.010;12.034;2023-02-01T06:23:03;1.35;;;1.10;;
20203;SDS011;10261;49.010;12.034;2023-02-01T06:24:07;1.27;;;1.00;;
20203;SDS011;10261;49.010;12.034;2023-02-01T06:25:09;1.48;;;1.00;;
20203;SDS011;10261;49.010;12.034;2023-02-01T06:26:12;1.40;;;1.20;;
20203;SDS011;10261;49.010;12.034;2023-02-01T06:27:15;1.02;;;0.93;;
20203;SDS011;10261;49.010;12.034;2023-02-01T06:28:19;1.70;;;0.95;;
20203;SDS011;10261;49.010;12.034;2023-02-01T06:29:21;2.95;;;0.95;;
20203;SDS011;10261;49.010;12.034;2023-02-01T06:30:24;2.97;;;1.02;;
20203;SDS011;10261;49.010;12.034;2023-02-01T06:31:35;1.88;;;0.93;;
20203;SDS011;10261;49.010;12.034;2023-02-01T06:32:52;3.00;;;1.00;;
20203;SDS011;10261;49.010;12.034;2023-02-01T06:33:54;1.80;;;1.27;;